Raritan, Illinois
Current Conditions -  °F | °C
As of 11:55 AM on Friday 21 Nov 2014 (Local Time) from KMQB Reporting Station
Clear Clear  
Wind Chill: 23°   Ceiling: Unl
Heat Index: 32°   Visibility: 10mi
Dew Point:   Wind: 13mph
Humidity: 38%   Direction: 150°SSE
Pressure: 30.4"   Gusts: NA
Location:  40.7°N, 90.83°W
Report Text: KMQB 211755Z AUTO 15011KT 10SM CLR 00/M13 A3040 RMK AO2 T00001128 10000 21142
Loading
Personal Weather Stations






























Interactive Weather Map New forecast layout! Learn more

10-Day Weather Forecast

Advertisements
Track Severe Weather on mobile